Time;durP1;ratioP1;P1;durP2;ratioP2;P2;SDS_P1;SDS_P2;PMS_P1;PMS_P2;Temp;Humidity;BMP_temperature;BMP_pressure;BME280_temperature;BME280_humidity;BME280_pressure;Samples;Min_cycle;Max_cycle;Signal;HPM_P1;HPM_P2
2022/08/27 00:02:16;;;;;;;1.13;1.00;;;23.40;59.00;;;;;;6215227;28;20086;-72
2022/08/27 00:05:18;;;;;;;1.38;0.90;;;23.40;59.00;;;;;;6214809;28;20101;-72
2022/08/27 00:08:18;;;;;;;1.00;0.90;;;23.40;59.00;;;;;;6215619;28;20029;-72
2022/08/27 00:11:21;;;;;;;1.67;1.05;;;23.40;59.00;;;;;;6214967;28;20026;-73
2022/08/27 00:14:22;;;;;;;2.83;1.20;;;23.40;59.00;;;;;;6214986;28;20113;-72
2022/08/27 00:17:23;;;;;;;1.63;1.02;;;23.40;59.00;;;;;;6214778;28;20053;-72
2022/08/27 00:20:25;;;;;;;1.40;1.10;;;23.40;59.00;;;;;;6215579;28;20028;-73
2022/08/27 00:23:26;;;;;;;1.00;0.90;;;23.40;59.00;;;;;;6214572;28;20044;-72
2022/08/27 00:26:26;;;;;;;2.00;0.98;;;23.40;59.00;;;;;;6214418;28;20034;-72
2022/08/27 00:29:27;;;;;;;1.60;1.17;;;23.40;59.00;;;;;;6214088;28;20469;-72
2022/08/27 00:32:28;;;;;;;1.10;0.80;;;23.40;59.00;;;;;;6213393;28;20556;-72
2022/08/27 00:35:29;;;;;;;1.13;1.02;;;23.40;59.00;;;;;;6215919;28;20533;-72
2022/08/27 00:38:30;;;;;;;1.38;1.02;;;23.40;59.00;;;;;;6215594;28;20030;-72
2022/08/27 00:41:31;;;;;;;1.30;1.20;;;23.40;59.00;;;;;;6219961;28;20049;-72
2022/08/27 00:44:32;;;;;;;0.80;0.75;;;23.40;59.00;;;;;;6215580;28;20060;-73
2022/08/27 00:47:39;;;;;;;1.00;0.90;;;23.40;59.00;;;;;;6215701;28;20511;-72
2022/08/27 00:50:45;;;;;;;1.23;1.00;;;23.40;59.00;;;;;;6214199;28;20034;-72
2022/08/27 00:53:45;;;;;;;1.08;0.80;;;23.40;59.00;;;;;;6215717;28;20022;-72
2022/08/27 00:56:47;;;;;;;1.05;0.80;;;23.40;59.00;;;;;;6215283;28;20029;-72
2022/08/27 00:59:48;;;;;;;1.88;0.90;;;23.40;59.00;;;;;;6221025;28;20113;-72
2022/08/27 01:02:49;;;;;;;1.02;0.90;;;23.40;59.00;;;;;;6221015;28;20052;-72
2022/08/27 01:05:49;;;;;;;0.70;0.70;;;23.40;59.00;;;;;;6221123;28;20464;-72
2022/08/27 01:08:54;;;;;;;0.90;0.85;;;23.40;59.00;;;;;;6214022;28;20057;-72
2022/08/27 01:11:56;;;;;;;;;;;23.40;59.00;;;;;;6212741;28;20041;-72
2022/08/27 01:14:57;;;;;;;0.80;0.80;;;23.40;59.00;;;;;;6207689;28;19905;-72
2022/08/27 01:17:59;;;;;;;1.90;0.93;;;23.40;59.00;;;;;;6222705;28;20504;-72
2022/08/27 01:21:17;;;;;;;0.80;0.80;;;23.40;59.00;;;;;;6213294;28;20675;-72
2022/08/27 01:24:23;;;;;;;1.10;0.90;;;23.40;59.00;;;;;;6214837;28;20018;-72
2022/08/27 01:27:29;;;;;;;1.00;0.90;;;23.40;59.00;;;;;;6214828;28;20507;-72
2022/08/27 01:30:30;;;;;;;1.20;0.90;;;23.40;59.00;;;;;;6213732;28;20387;-73
2022/08/27 01:33:31;;;;;;;1.00;0.80;;;23.40;59.00;;;;;;6213372;28;20413;-72
2022/08/27 01:36:32;;;;;;;1.10;1.00;;;23.40;59.00;;;;;;6214084;28;20037;-72
2022/08/27 01:39:35;;;;;;;1.50;1.10;;;23.40;59.00;;;;;;6213592;28;20050;-72
2022/08/27 01:42:39;;;;;;;1.00;0.90;;;23.40;59.00;;;;;;6218832;28;20034;-72
2022/08/27 01:45:47;;;;;;;0.73;0.70;;;23.40;59.00;;;;;;6217688;28;20038;-72
2022/08/27 01:48:48;;;;;;;1.10;1.00;;;23.40;59.00;;;;;;6219152;28;20075;-74
2022/08/27 01:51:48;;;;;;;0.70;0.70;;;23.40;59.00;;;;;;6195130;28;20054;-72
2022/08/27 01:54:50;;;;;;;1.58;1.00;;;23.40;59.00;;;;;;6201823;28;20171;-73
2022/08/27 01:57:53;;;;;;;1.00;0.90;;;23.40;59.00;;;;;;6218780;28;20026;-73
2022/08/27 02:00:58;;;;;;;1.05;0.95;;;23.40;59.00;;;;;;6219249;28;20112;-73
2022/08/27 02:03:58;;;;;;;;;;;23.40;59.00;;;;;;6217781;28;20473;-72
2022/08/27 02:06:59;;;;;;;1.20;0.90;;;23.40;59.00;;;;;;6217545;28;19905;-72
2022/08/27 02:09:59;;;;;;;1.00;0.70;;;23.40;59.00;;;;;;6217854;28;20026;-72
2022/08/27 02:13:01;;;;;;;1.13;0.93;;;23.40;59.00;;;;;;6218589;28;20018;-72
2022/08/27 02:16:02;;;;;;;1.25;0.90;;;23.40;59.00;;;;;;6218158;28;20029;-72
2022/08/27 02:19:03;;;;;;;0.88;0.70;;;23.40;59.00;;;;;;6224702;28;20579;-73
2022/08/27 02:22:04;;;;;;;0.90;0.80;;;23.40;59.00;;;;;;6224548;28;20060;-72
2022/08/27 02:25:06;;;;;;;0.70;0.70;;;23.40;59.00;;;;;;6217865;28;20022;-72
2022/08/27 02:28:07;;;;;;;0.80;0.80;;;23.40;59.00;;;;;;6217976;28;20022;-72
2022/08/27 02:31:09;;;;;;;0.82;0.82;;;23.40;59.00;;;;;;6218336;28;20106;-72
2022/08/27 02:34:09;;;;;;;1.20;1.00;;;23.40;58.90;;;;;;6217340;28;20396;-72
2022/08/27 02:37:10;;;;;;;0.85;0.73;;;23.40;59.00;;;;;;6218507;28;20037;-72
2022/08/27 02:40:15;;;;;;;1.05;0.70;;;23.40;59.00;;;;;;6217742;28;20124;-72
2022/08/27 02:43:15;;;;;;;0.80;0.80;;;23.40;59.00;;;;;;6217529;28;20034;-72
2022/08/27 02:46:16;;;;;;;1.05;0.88;;;23.40;59.00;;;;;;6217986;28;20541;-72
2022/08/27 02:49:17;;;;;;;0.73;0.70;;;23.40;59.00;;;;;;6218038;28;20026;-73
2022/08/27 02:52:17;;;;;;;1.02;0.82;;;23.40;59.00;;;;;;6217319;28;20508;-72
2022/08/27 02:55:18;;;;;;;1.20;0.82;;;23.40;59.00;;;;;;6217588;28;20563;-72
2022/08/27 02:58:19;;;;;;;1.85;0.80;;;23.40;59.00;;;;;;6216961;28;20124;-73
2022/08/27 03:01:20;;;;;;;1.15;1.02;;;23.40;59.00;;;;;;6216793;28;20388;-72
2022/08/27 03:04:21;;;;;;;1.30;0.75;;;23.40;59.00;;;;;;6216490;28;20455;-72
2022/08/27 03:07:23;;;;;;;1.15;0.90;;;23.40;59.70;;;;;;6215832;28;20108;-72
2022/08/27 03:10:23;;;;;;;0.70;0.70;;;23.40;59.00;;;;;;6217068;28;20025;-73
2022/08/27 03:13:25;;;;;;;0.90;0.90;;;23.40;59.00;;;;;;6217418;28;20356;-72
2022/08/27 03:16:25;;;;;;;0.75;0.75;;;23.40;59.00;;;;;;6217192;28;20487;-72
2022/08/27 03:19:26;;;;;;;1.20;0.90;;;23.40;58.90;;;;;;6217099;28;20036;-72
2022/08/27 03:22:26;;;;;;;0.88;0.80;;;23.40;59.00;;;;;;6217480;28;20083;-72
2022/08/27 03:25:27;;;;;;;1.08;0.90;;;23.40;59.00;;;;;;6215740;28;20468;-72
2022/08/27 03:28:31;;;;;;;0.88;0.85;;;23.40;59.70;;;;;;6217951;28;20053;-72
2022/08/27 03:31:32;;;;;;;1.10;1.00;;;23.40;59.00;;;;;;6216949;28;20018;-72
2022/08/27 03:34:33;;;;;;;0.85;0.65;;;23.40;59.00;;;;;;6216476;28;20109;-72
2022/08/27 03:37:34;;;;;;;1.10;1.00;;;23.40;59.00;;;;;;6216877;28;20464;-72
2022/08/27 03:40:34;;;;;;;1.20;0.80;;;23.40;59.00;;;;;;6217058;28;20054;-72
2022/08/27 03:43:35;;;;;;;2.33;1.02;;;23.40;59.00;;;;;;6222777;28;20125;-72
2022/08/27 03:46:36;;;;;;;1.05;0.90;;;23.40;59.00;;;;;;6216697;28;20384;-72
2022/08/27 03:49:37;;;;;;;0.90;0.80;;;23.40;59.00;;;;;;6216889;28;20400;-72
2022/08/27 03:52:37;;;;;;;0.70;0.70;;;23.40;59.00;;;;;;6216962;28;20018;-72
2022/08/27 03:55:41;;;;;;;0.80;0.80;;;23.40;59.00;;;;;;6216065;28;20022;-72
2022/08/27 03:58:41;;;;;;;0.80;0.80;;;23.40;59.00;;;;;;6215357;28;20095;-72
2022/08/27 04:01:44;;;;;;;1.08;0.77;;;23.40;59.00;;;;;;6216421;28;20034;-73
2022/08/27 04:04:44;;;;;;;0.80;0.80;;;23.40;59.00;;;;;;6215599;28;20022;-72
2022/08/27 04:07:45;;;;;;;0.70;0.70;;;23.40;59.00;;;;;;6215807;28;20399;-72
2022/08/27 04:10:46;;;;;;;0.70;0.70;;;23.40;59.00;;;;;;6216737;28;20033;-73
2022/08/27 04:13:46;;;;;;;1.10;0.90;;;23.40;59.00;;;;;;6220681;28;20072;-72
2022/08/27 04:16:47;;;;;;;1.00;0.90;;;23.40;59.00;;;;;;6216573;28;20101;-73
2022/08/27 04:19:51;;;;;;;1.00;0.80;;;23.40;59.00;;;;;;6216110;28;20038;-73
2022/08/27 04:22:51;;;;;;;1.00;0.90;;;23.40;59.00;;;;;;6215994;28;20030;-72
2022/08/27 04:25:52;;;;;;;1.58;1.00;;;23.40;59.00;;;;;;6214274;28;20033;-72
2022/08/27 04:28:54;;;;;;;1.00;0.80;;;23.40;59.00;;;;;;6214565;28;20050;-72
2022/08/27 04:31:55;;;;;;;0.95;0.80;;;23.40;59.00;;;;;;6214491;28;20380;-72
2022/08/27 04:34:58;;;;;;;1.45;0.80;;;23.40;59.00;;;;;;6215983;28;20029;-73
2022/08/27 04:37:59;;;;;;;1.20;0.90;;;23.40;59.00;;;;;;6215672;28;20026;-72
2022/08/27 04:41:21;;;;;;;1.03;0.90;;;23.40;59.00;;;;;;6217046;28;20081;-72
2022/08/27 04:44:24;;;;;;;0.73;0.73;;;23.40;59.00;;;;;;6214963;28;20034;-72
2022/08/27 04:47:24;;;;;;;1.38;1.15;;;23.40;59.10;;;;;;6214628;28;20030;-73
2022/08/27 04:50:25;;;;;;;0.90;0.80;;;23.40;59.00;;;;;;6214910;28;20111;-72
2022/08/27 04:53:26;;;;;;;0.63;0.60;;;23.40;59.10;;;;;;6214256;28;20027;-72
2022/08/27 04:56:28;;;;;;;0.98;0.88;;;23.40;59.00;;;;;;6214137;28;20033;-72
2022/08/27 05:03:27;;;;;;;0.80;0.80;;;23.40;59.00;;;;;;6204987;28;20353;-72
2022/08/27 05:06:28;;;;;;;1.00;0.90;;;23.40;59.00;;;;;;6215772;28;20038;-72
2022/08/27 05:09:29;;;;;;;0.93;0.80;;;23.40;59.00;;;;;;6215201;28;20041;-72
2022/08/27 05:12:30;;;;;;;0.95;0.88;;;23.40;59.00;;;;;;6214058;28;20400;-74
2022/08/27 05:15:31;;;;;;;1.08;0.98;;;23.40;59.00;;;;;;6217938;28;20030;-72
2022/08/27 05:18:32;;;;;;;1.00;0.90;;;23.40;59.00;;;;;;6218251;28;20033;-72
2022/08/27 05:21:35;;;;;;;0.88;0.85;;;23.40;59.00;;;;;;6217927;28;20029;-72
2022/08/27 05:24:36;;;;;;;0.90;0.82;;;23.40;59.00;;;;;;6217908;28;20014;-72
2022/08/27 05:27:36;;;;;;;1.50;0.90;;;23.40;59.10;;;;;;6218446;28;20035;-72
2022/08/27 05:30:42;;;;;;;1.00;0.75;;;23.40;59.00;;;;;;6219054;28;20053;-72
2022/08/27 05:33:43;;;;;;;0.88;0.82;;;23.40;59.00;;;;;;6219481;28;20047;-72
2022/08/27 05:36:45;;;;;;;0.93;0.80;;;23.40;59.00;;;;;;6219540;28;20030;-72
2022/08/27 05:39:45;;;;;;;1.10;1.00;;;23.40;59.00;;;;;;6218441;28;20507;-72
2022/08/27 05:42:46;;;;;;;1.50;1.05;;;23.40;59.00;;;;;;6217895;28;20114;-72
2022/08/27 05:45:48;;;;;;;1.33;1.08;;;23.40;59.00;;;;;;6217465;28;20476;-71
2022/08/27 05:48:49;;;;;;;1.10;1.00;;;23.40;59.00;;;;;;6217892;28;20430;-72
2022/08/27 05:51:50;;;;;;;0.70;0.70;;;23.40;59.00;;;;;;6218568;28;20030;-73
2022/08/27 05:54:51;;;;;;;1.00;0.90;;;23.40;59.00;;;;;;6218730;28;20389;-72
2022/08/27 05:57:51;;;;;;;0.90;0.80;;;23.40;59.00;;;;;;6217847;28;20119;-72
2022/08/27 06:01:03;;;;;;;1.50;0.80;;;23.40;59.00;;;;;;6218719;28;20445;-72
2022/08/27 06:04:05;;;;;;;0.80;0.80;;;23.40;59.00;;;;;;6218698;28;20869;-72
2022/08/27 06:07:09;;;;;;;1.08;0.90;;;23.40;59.00;;;;;;6217540;28;20063;-72
2022/08/27 06:10:10;;;;;;;0.93;0.80;;;23.40;59.00;;;;;;6218698;28;20112;-72
2022/08/27 06:13:11;;;;;;;2.28;0.90;;;23.40;59.00;;;;;;6218096;28;20159;-72
2022/08/27 06:16:15;;;;;;;1.02;0.90;;;23.40;59.00;;;;;;6217033;28;20018;-72
2022/08/27 06:19:15;;;;;;;1.00;0.90;;;23.40;59.00;;;;;;6218215;28;20060;-72
2022/08/27 06:22:16;;;;;;;1.02;0.93;;;23.40;59.00;;;;;;6217926;28;20038;-72
2022/08/27 06:25:17;;;;;;;1.33;1.00;;;23.40;59.10;;;;;;6217520;28;20018;-72
2022/08/27 06:28:22;;;;;;;0.70;0.70;;;23.40;59.10;;;;;;6218251;28;20022;-73
2022/08/27 06:31:25;;;;;;;1.38;1.08;;;23.40;59.00;;;;;;6218175;28;20018;-72
2022/08/27 06:34:26;;;;;;;0.88;0.88;;;23.40;59.00;;;;;;6217093;28;20063;-72
2022/08/27 06:37:28;;;;;;;1.20;1.00;;;23.40;59.00;;;;;;6218269;28;20026;-73
2022/08/27 06:40:28;;;;;;;1.00;0.90;;;23.40;59.00;;;;;;6216084;28;20054;-72
2022/08/27 06:43:29;;;;;;;0.75;0.75;;;23.40;59.00;;;;;;6216039;28;20159;-72
2022/08/27 06:46:29;;;;;;;1.10;1.00;;;23.40;59.00;;;;;;6216729;28;20072;-72
2022/08/27 06:49:32;;;;;;;0.98;0.90;;;23.40;59.10;;;;;;6217267;28;20054;-72
2022/08/27 06:52:33;;;;;;;1.20;1.02;;;23.40;59.10;;;;;;6217969;28;20369;-72
2022/08/27 06:55:45;;;;;;;1.05;0.90;;;23.40;59.00;;;;;;6217309;28;20083;-72
2022/08/27 06:58:47;;;;;;;1.20;1.00;;;23.40;59.10;;;;;;6218365;28;20597;-72
2022/08/27 07:01:50;;;;;;;0.82;0.73;;;23.40;59.00;;;;;;6216997;28;20049;-72
2022/08/27 07:04:52;;;;;;;1.10;1.00;;;23.40;59.00;;;;;;6216222;28;20030;-72
2022/08/27 07:07:53;;;;;;;0.82;0.82;;;23.40;59.10;;;;;;6216751;28;20026;-72
2022/08/27 07:10:56;;;;;;;1.25;1.02;;;23.40;59.00;;;;;;6216016;28;20526;-72
2022/08/27 07:13:57;;;;;;;0.80;0.80;;;23.40;59.10;;;;;;6216828;28;20484;-72
2022/08/27 07:16:58;;;;;;;0.73;0.70;;;23.40;59.10;;;;;;6223557;28;20377;-72
2022/08/27 07:19:58;;;;;;;1.08;0.98;;;23.40;59.10;;;;;;6217067;28;20037;-73
2022/08/27 07:22:59;;;;;;;1.13;1.00;;;23.40;59.10;;;;;;6215425;28;20065;-72
2022/08/27 07:26:00;;;;;;;1.08;0.80;;;23.40;59.10;;;;;;6217159;28;20071;-72
2022/08/27 07:29:02;;;;;;;1.17;0.88;;;23.40;59.10;;;;;;6217291;28;20022;-72
2022/08/27 07:32:03;;;;;;;1.15;1.05;;;23.40;59.10;;;;;;6216412;28;20468;-73
2022/08/27 07:35:08;;;;;;;0.90;0.90;;;23.40;59.10;;;;;;6224870;28;20018;-72
2022/08/27 07:38:12;;;;;;;1.20;0.90;;;23.40;59.10;;;;;;6216112;28;20336;-72
2022/08/27 07:41:13;;;;;;;1.08;0.90;;;23.40;59.10;;;;;;6215247;28;20050;-72
2022/08/27 07:44:26;;;;;;;0.80;0.80;;;23.40;59.10;;;;;;6215603;28;20526;-72
2022/08/27 07:47:27;;;;;;;1.08;0.90;;;23.40;59.10;;;;;;6216864;28;20037;-72
2022/08/27 07:50:27;;;;;;;0.88;0.85;;;23.40;59.10;;;;;;6216783;28;20690;-72
2022/08/27 07:53:28;;;;;;;0.80;0.80;;;23.40;59.10;;;;;;6216279;28;20034;-72
2022/08/27 07:56:28;;;;;;;0.90;0.90;;;23.40;59.10;;;;;;6216294;28;20109;-72
2022/08/27 07:59:29;;;;;;;1.65;1.10;;;23.40;59.10;;;;;;6216689;28;20030;-72
2022/08/27 08:02:30;;;;;;;0.80;0.70;;;23.40;59.10;;;;;;6216724;28;20034;-73
2022/08/27 08:05:31;;;;;;;1.00;0.90;;;23.40;59.10;;;;;;6216388;28;20411;-72
2022/08/27 08:08:33;;;;;;;0.90;0.77;;;23.40;59.10;;;;;;6216663;28;20525;-72
2022/08/27 08:11:34;;;;;;;1.00;0.90;;;23.40;59.10;;;;;;6215973;28;20035;-72
2022/08/27 08:14:35;;;;;;;1.05;0.95;;;23.40;59.10;;;;;;6216933;28;20091;-73
2022/08/27 08:17:37;;;;;;;1.20;0.95;;;23.40;59.10;;;;;;6215217;28;20075;-72
2022/08/27 08:20:38;;;;;;;0.98;0.80;;;23.40;59.10;;;;;;6215463;28;20026;-72
2022/08/27 08:23:40;;;;;;;0.95;0.85;;;23.40;59.10;;;;;;6219905;28;20090;-72
2022/08/27 08:26:40;;;;;;;0.73;0.73;;;23.40;59.10;;;;;;6222089;28;20065;-72
2022/08/27 08:29:41;;;;;;;1.23;0.98;;;23.40;59.10;;;;;;6214987;28;20026;-72
2022/08/27 08:32:42;;;;;;;0.90;0.90;;;23.40;59.10;;;;;;6214255;28;20072;-72
2022/08/27 08:35:42;;;;;;;1.15;0.82;;;23.40;59.20;;;;;;6215041;28;20433;-71
2022/08/27 08:38:44;;;;;;;0.88;0.80;;;23.40;59.10;;;;;;6216908;28;20049;-72
2022/08/27 08:41:52;;;;;;;1.00;0.90;;;23.40;59.10;;;;;;6215778;28;20110;-72
2022/08/27 08:44:55;;;;;;;1.25;0.95;;;23.40;59.10;;;;;;6215872;28;20022;-72
2022/08/27 08:48:21;;;;;;;0.88;0.80;;;23.40;59.10;;;;;;6216506;28;20392;-73
2022/08/27 08:51:31;;;;;;;1.10;1.00;;;23.40;59.10;;;;;;6220552;28;20026;-72
2022/08/27 08:54:33;;;;;;;0.80;0.80;;;23.40;59.10;;;;;;6216065;28;20061;-72
2022/08/27 08:57:49;;;;;;;0.70;0.70;;;23.40;59.10;;;;;;6215705;28;20506;-72
2022/08/27 09:00:56;;;;;;;1.10;0.88;;;23.40;59.10;;;;;;6216105;28;20026;-75
2022/08/27 09:04:01;;;;;;;0.88;0.80;;;23.40;59.10;;;;;;6215097;28;20512;-72
2022/08/27 09:07:07;;;;;;;1.05;0.95;;;23.40;59.10;;;;;;6215754;28;20030;-72
2022/08/27 09:10:20;;;;;;;1.05;0.77;;;23.40;59.10;;;;;;6216055;28;20025;-72
2022/08/27 09:13:29;;;;;;;0.82;0.82;;;23.40;59.10;;;;;;6214207;28;20076;-72
2022/08/27 09:16:31;;;;;;;0.65;0.65;;;23.40;59.10;;;;;;6212418;28;20030;-72
2022/08/27 09:19:33;;;;;;;1.00;0.90;;;23.40;59.10;;;;;;6213981;28;20455;-72
2022/08/27 09:23:01;;;;;;;1.10;1.00;;;23.40;59.20;;;;;;6213939;28;20041;-72
2022/08/27 09:26:02;;;;;;;0.75;0.75;;;23.40;59.20;;;;;;6213939;28;20523;-72
2022/08/27 09:29:14;;;;;;;1.00;0.90;;;23.40;59.10;;;;;;6213910;28;20026;-73
2022/08/27 09:32:15;;;;;;;1.02;0.95;;;23.40;59.10;;;;;;6214043;28;20384;-73
2022/08/27 09:35:16;;;;;;;1.08;0.90;;;23.40;59.20;;;;;;6215105;28;20030;-73
2022/08/27 09:38:28;;;;;;;1.02;0.90;;;23.40;59.10;;;;;;6215224;28;20038;-72
2022/08/27 09:41:35;;;;;;;0.85;0.85;;;23.40;59.10;;;;;;6215267;28;20617;-73
2022/08/27 09:44:46;;;;;;;1.17;1.08;;;23.40;59.10;;;;;;6218055;28;20065;-72
2022/08/27 09:48:06;;;;;;;0.90;0.90;;;23.40;59.20;;;;;;6214733;28;20030;-73
2022/08/27 09:51:11;;;;;;;1.00;0.90;;;23.40;59.20;;;;;;6199984;28;20030;-72
2022/08/27 09:54:22;;;;;;;;;;;23.40;59.20;;;;;;6207155;28;20021;-72
2022/08/27 09:57:40;;;;;;;0.73;0.73;;;23.40;59.10;;;;;;6213656;28;19909;-72
2022/08/27 10:00:41;;;;;;;1.90;0.90;;;23.40;59.10;;;;;;6210215;28;20037;-72
2022/08/27 10:03:42;;;;;;;1.15;0.95;;;23.40;59.20;;;;;;6213890;28;20038;-72
2022/08/27 10:06:48;;;;;;;0.88;0.82;;;23.40;59.20;;;;;;6218171;28;20072;-72
2022/08/27 10:10:12;;;;;;;1.02;0.93;;;23.40;59.20;;;;;;6219097;28;20033;-72
2022/08/27 10:13:36;;;;;;;1.17;1.08;;;23.40;59.20;;;;;;6218967;28;20041;-73
2022/08/27 10:16:55;;;;;;;0.93;0.77;;;23.40;59.20;;;;;;6198167;28;20223;-71
2022/08/27 10:20:33;;;;;;;0.98;0.82;;;23.40;59.20;;;;;;6202333;28;20022;-73
2022/08/27 10:23:41;;;;;;;0.88;0.80;;;23.40;59.10;;;;;;6209054;28;20072;-72
2022/08/27 10:27:02;;;;;;;0.77;0.75;;;23.40;59.50;;;;;;6216700;28;20598;-72
2022/08/27 10:30:13;;;;;;;1.00;0.90;;;23.50;59.60;;;;;;6212697;28;20022;-72
2022/08/27 10:33:32;;;;;;;1.00;0.75;;;23.50;59.70;;;;;;6218619;28;20029;-72
2022/08/27 10:36:50;;;;;;;1.27;0.90;;;23.50;59.70;;;;;;6215118;28;20433;-72
2022/08/27 10:40:08;;;;;;;0.80;0.70;;;23.40;59.60;;;;;;6214874;28;20108;-72
2022/08/27 10:43:24;;;;;;;0.65;0.65;;;23.40;60.40;;;;;;6217790;28;20026;-72
2022/08/27 10:46:43;;;;;;;1.00;0.90;;;23.40;59.60;;;;;;6214834;28;20479;-72
2022/08/27 10:49:56;;;;;;;0.77;0.70;;;23.50;60.60;;;;;;6214263;28;20030;-72
2022/08/27 10:53:08;;;;;;;1.30;0.90;;;23.50;60.80;;;;;;6218721;28;20030;-72
2022/08/27 10:56:31;;;;;;;1.00;0.90;;;23.50;60.70;;;;;;6214122;28;20022;-72
2022/08/27 11:00:04;;;;;;;3.42;0.85;;;23.50;60.60;;;;;;6215701;28;20082;-72
2022/08/27 11:03:13;;;;;;;0.93;0.82;;;23.50;60.20;;;;;;6219462;28;20038;-71
2022/08/27 11:06:26;;;;;;;3.67;1.00;;;23.50;60.50;;;;;;6216042;28;20057;-72
2022/08/27 11:09:37;;;;;;;1.10;1.00;;;23.50;61.10;;;;;;6220186;28;20041;-72
2022/08/27 11:12:43;;;;;;;2.05;0.93;;;23.50;60.40;;;;;;6214364;28;20025;-72
2022/08/27 11:15:47;;;;;;;1.27;0.90;;;23.60;60.30;;;;;;6215446;28;20033;-72
2022/08/27 11:19:11;;;;;;;1.10;0.95;;;23.50;59.90;;;;;;6220184;28;20395;-72
2022/08/27 11:22:33;;;;;;;1.02;0.93;;;23.50;60.00;;;;;;6216852;28;20132;-72
2022/08/27 11:25:58;;;;;;;1.42;0.82;;;23.50;59.80;;;;;;6212996;28;20107;-72
2022/08/27 11:29:05;;;;;;;0.68;0.68;;;23.50;59.80;;;;;;6217667;28;20034;-72
2022/08/27 11:32:36;;;;;;;0.90;0.90;;;23.50;59.70;;;;;;6213837;28;20509;-71
2022/08/27 11:35:55;;;;;;;1.00;0.90;;;23.50;59.80;;;;;;6214736;28;20021;-72
2022/08/27 11:39:19;;;;;;;3.28;0.90;;;23.50;59.70;;;;;;6216805;28;20030;-71
2022/08/27 11:42:42;;;;;;;3.45;0.93;;;23.50;59.70;;;;;;6212752;28;20076;-71
2022/08/27 11:45:59;;;;;;;0.77;0.70;;;23.60;59.80;;;;;;6212020;28;20022;-71
2022/08/27 11:49:03;;;;;;;0.82;0.80;;;23.60;59.70;;;;;;6214923;28;20674;-72
2022/08/27 11:52:06;;;;;;;1.27;0.80;;;23.60;59.70;;;;;;6214671;28;20030;-70
2022/08/27 11:55:09;;;;;;;1.33;0.95;;;23.60;59.90;;;;;;6216277;28;20438;-73
2022/08/27 11:58:25;;;;;;;1.85;1.13;;;23.60;60.60;;;;;;6215807;28;20065;-73
2022/08/27 12:01:28;;;;;;;1.90;1.10;;;23.60;61.40;;;;;;6213545;28;20037;-72
2022/08/27 12:04:29;;;;;;;1.83;1.20;;;23.60;60.40;;;;;;6216366;28;20129;-71
2022/08/27 12:07:34;;;;;;;1.08;0.90;;;23.60;60.00;;;;;;6214766;28;20018;-71
2022/08/27 12:11:04;;;;;;;1.08;0.80;;;23.60;59.90;;;;;;6214220;28;20026;-71
2022/08/27 12:14:48;;;;;;;1.75;0.90;;;23.60;59.80;;;;;;6215364;28;20524;-71
2022/08/27 12:18:27;;;;;;;2.78;1.13;;;23.60;60.40;;;;;;6190628;28;20286;-71
2022/08/27 12:22:08;;;;;;;1.00;0.82;;;23.60;60.20;;;;;;6211670;28;20038;-71
2022/08/27 12:25:20;;;;;;;0.90;0.80;;;23.60;60.00;;;;;;6201232;28;20046;-70
2022/08/27 12:28:23;;;;;;;1.27;1.08;;;23.60;60.00;;;;;;6211424;28;20731;-70
2022/08/27 12:31:24;;;;;;;2.40;1.15;;;23.60;60.40;;;;;;6212704;28;20118;-70
2022/08/27 12:34:26;;;;;;;1.55;1.10;;;23.50;60.20;;;;;;6211839;28;20026;-70
2022/08/27 12:37:30;;;;;;;1.15;0.93;;;23.60;60.20;;;;;;6212246;28;20491;-72
2022/08/27 12:40:50;;;;;;;2.80;1.15;;;23.50;59.90;;;;;;6212990;28;20049;-71
2022/08/27 12:44:06;;;;;;;1.58;1.00;;;23.50;60.10;;;;;;6212666;28;20503;-71
2022/08/27 12:47:10;;;;;;;1.25;1.15;;;23.50;59.90;;;;;;6212373;28;20026;-71
2022/08/27 12:50:11;;;;;;;2.22;1.17;;;23.50;60.00;;;;;;6212621;28;20030;-70
2022/08/27 12:53:22;;;;;;;1.10;1.00;;;23.50;60.00;;;;;;6191986;28;20034;-71
2022/08/27 12:56:34;;;;;;;1.45;0.73;;;23.50;60.00;;;;;;6200924;28;20109;-70
2022/08/27 12:59:50;;;;;;;1.90;0.95;;;23.50;59.90;;;;;;6212363;28;20025;-72
2022/08/27 13:03:12;;;;;;;4.25;1.13;;;23.50;59.90;;;;;;6211650;28;20530;-71
2022/08/27 13:06:25;;;;;;;2.28;1.20;;;23.50;60.00;;;;;;6211939;28;20068;-70
2022/08/27 13:09:32;;;;;;;1.38;0.95;;;23.50;59.90;;;;;;6213517;28;20025;-71
2022/08/27 13:12:32;;;;;;;1.95;1.10;;;23.50;59.90;;;;;;6211800;28;20388;-71
2022/08/27 13:15:33;;;;;;;1.95;0.95;;;23.50;59.90;;;;;;6213218;28;20060;-70
2022/08/27 13:18:35;;;;;;;1.05;0.80;;;23.50;59.90;;;;;;6213793;28;20109;-71
2022/08/27 13:21:36;;;;;;;1.00;0.80;;;23.50;59.90;;;;;;6257004;28;20039;-71
2022/08/27 13:24:48;;;;;;;0.73;0.70;;;23.50;59.90;;;;;;6336830;28;20076;-73
2022/08/27 13:28:14;;;;;;;1.40;1.10;;;23.50;59.90;;;;;;6233994;28;20119;-70
2022/08/27 13:31:17;;;;;;;1.40;0.90;;;23.50;59.90;;;;;;6216869;28;20036;-71
2022/08/27 13:34:24;;;;;;;1.10;0.90;;;23.50;59.90;;;;;;6235756;28;20014;-71
2022/08/27 13:37:31;;;;;;;2.20;0.98;;;23.50;59.90;;;;;;6224799;28;20224;-71
2022/08/27 13:40:35;;;;;;;1.60;1.17;;;23.50;59.90;;;;;;6214014;28;20107;-70
2022/08/27 13:43:41;;;;;;;1.00;0.90;;;23.50;59.90;;;;;;6213500;28;20335;-70
2022/08/27 13:46:52;;;;;;;1.08;0.90;;;23.50;59.90;;;;;;6215068;28;20427;-71
2022/08/27 13:50:19;;;;;;;0.85;0.85;;;23.50;59.90;;;;;;6241970;28;20036;-70
2022/08/27 13:57:08;;;;;;;1.25;1.00;;;23.50;60.00;;;;;;6225246;28;20116;-73
2022/08/27 14:00:31;;;;;;;1.17;0.90;;;23.50;60.30;;;;;;6194151;28;20058;-72
2022/08/27 14:03:35;;;;;;;1.48;0.98;;;23.50;59.80;;;;;;6232547;28;20030;-72
2022/08/27 14:06:42;;;;;;;1.13;1.00;;;23.50;59.90;;;;;;6234056;28;20018;-72
2022/08/27 14:09:47;;;;;;;2.78;0.80;;;23.50;59.80;;;;;;6217373;28;20022;-72
2022/08/27 14:13:01;;;;;;;0.80;0.80;;;23.50;59.80;;;;;;6226962;28;20400;-72
2022/08/27 14:16:31;;;;;;;4.35;0.90;;;23.50;59.80;;;;;;6275060;28;20355;-72
2022/08/27 14:19:33;;;;;;;0.70;0.70;;;23.50;59.90;;;;;;6215316;28;20046;-72
2022/08/27 14:22:33;;;;;;;1.42;1.13;;;23.50;59.80;;;;;;6222610;28;20030;-72
2022/08/27 14:25:34;;;;;;;0.77;0.63;;;23.50;59.90;;;;;;6238932;28;20112;-70
2022/08/27 14:28:35;;;;;;;1.55;1.00;;;23.50;59.80;;;;;;6221250;28;20019;-72
2022/08/27 14:31:36;;;;;;;1.15;0.90;;;23.50;60.20;;;;;;6214333;28;20026;-71
2022/08/27 14:34:37;;;;;;;1.20;0.98;;;23.50;60.10;;;;;;6238588;28;20052;-71
2022/08/27 14:37:39;;;;;;;1.60;1.05;;;23.50;60.00;;;;;;6230478;28;20030;-71
2022/08/27 14:40:41;;;;;;;2.33;0.95;;;23.50;60.00;;;;;;6215189;28;20118;-72
2022/08/27 14:43:42;;;;;;;0.95;0.77;;;23.50;59.90;;;;;;6224968;28;20069;-72
2022/08/27 14:46:43;;;;;;;0.95;0.80;;;23.50;60.20;;;;;;6197159;28;20091;-72
2022/08/27 14:49:46;;;;;;;0.70;0.68;;;23.50;59.90;;;;;;6238012;28;20098;-72
2022/08/27 14:52:46;;;;;;;1.40;0.80;;;23.50;60.80;;;;;;6229880;28;20109;-72
2022/08/27 14:55:47;;;;;;;1.33;0.70;;;23.50;59.90;;;;;;6213275;28;20034;-72
2022/08/27 14:58:49;;;;;;;1.05;0.80;;;23.50;59.90;;;;;;6229375;28;20353;-72
2022/08/27 15:01:50;;;;;;;1.02;0.93;;;23.50;59.80;;;;;;6230126;28;20037;-72
2022/08/27 15:04:51;;;;;;;1.20;0.73;;;23.50;59.80;;;;;;6219451;28;20025;-72
2022/08/27 15:07:55;;;;;;;0.77;0.77;;;23.50;59.80;;;;;;6219794;28;20417;-73
2022/08/27 15:10:56;;;;;;;0.88;0.80;;;23.50;59.80;;;;;;6219761;28;20053;-72
2022/08/27 15:13:59;;;;;;;0.70;0.70;;;23.50;59.80;;;;;;6196596;28;20022;-72
2022/08/27 15:17:00;;;;;;;1.02;0.80;;;23.50;59.80;;;;;;6214272;28;20049;-73
2022/08/27 15:20:07;;;;;;;0.80;0.75;;;23.50;59.80;;;;;;6214320;28;20401;-72
2022/08/27 15:23:11;;;;;;;0.98;0.70;;;23.50;59.70;;;;;;6219046;28;20136;-72
2022/08/27 15:26:11;;;;;;;0.77;0.60;;;23.50;59.80;;;;;;6214026;28;20492;-72
2022/08/27 15:29:12;;;;;;;0.80;0.70;;;23.50;59.70;;;;;;6225387;28;20029;-72
2022/08/27 15:32:32;;;;;;;0.77;0.77;;;23.50;59.70;;;;;;6236356;28;20080;-72
2022/08/27 15:35:33;;;;;;;2.35;0.90;;;23.50;59.70;;;;;;6210314;28;20057;-72
2022/08/27 15:38:34;;;;;;;1.00;0.90;;;23.50;59.70;;;;;;6218923;28;20026;-72
2022/08/27 15:41:37;;;;;;;0.80;0.68;;;23.50;59.70;;;;;;6237841;28;20076;-72
2022/08/27 15:44:50;;;;;;;0.68;0.68;;;23.50;59.70;;;;;;6228383;28;20498;-72
2022/08/27 15:47:50;;;;;;;0.75;0.73;;;23.50;59.70;;;;;;6190926;28;20113;-73
2022/08/27 15:50:51;;;;;;;1.15;0.75;;;23.50;59.70;;;;;;6241919;28;20036;-72
2022/08/27 15:53:52;;;;;;;1.38;1.05;;;23.50;59.70;;;;;;6227615;28;20018;-73
2022/08/27 15:56:53;;;;;;;0.70;0.68;;;23.50;59.70;;;;;;6230799;28;20737;-72
2022/08/27 15:59:53;;;;;;;0.90;0.70;;;23.40;59.70;;;;;;6218844;28;20040;-72
2022/08/27 16:02:55;;;;;;;0.82;0.80;;;23.50;59.70;;;;;;6256853;28;20166;-72
2022/08/27 16:05:56;;;;;;;1.27;0.70;;;23.50;59.70;;;;;;6234149;28;20113;-72
2022/08/27 16:08:57;;;;;;;0.60;0.60;;;23.40;59.70;;;;;;6230410;28;20034;-73
2022/08/27 16:11:57;;;;;;;1.25;0.77;;;23.40;59.70;;;;;;6213858;28;20030;-72
2022/08/27 16:14:58;;;;;;;0.75;0.63;;;23.50;59.70;;;;;;6225841;28;20025;-73